Atlantic Beach, North Carolina
Current Conditions -  °F | °C
As of 4:58 AM on Sunday 21 Dec 2014 (Local Time) from KMRH Reporting Station
Few Clouds Few Clouds  
Wind Chill: 34°   Ceiling: Unl
Heat Index: 40°   Visibility: 10mi
Dew Point: 37°   Wind: 8mph
Humidity: 89%   Direction: 20°NNE
Pressure: 30.24"   Gusts: NA
Location:  34.7°N, 76.74°W
Report Text: KMRH 210958Z AUTO 02007KT 10SM FEW090 04/03 A3024 RMK AO2 SLP241 I1000 T00440028 TSNO
Loading
Personal Weather Stations






























Interactive Weather Map New forecast layout! Learn more

10-Day Weather Forecast

Advertisements
Track Severe Weather on mobile